Terminal Aerodrome Forecast
Issued by NWS

Home | Current Version | Previous Version | Text Only | Print | Product List | Glossary On
Versions: 1 2 3 4 5 6 7 8 9 10 11 12 13 14 15 16 17 18 19 20 21 22 23 24 25 26 27 28 29 30 31 32
000
FTUS45 KGJT 182338
TAFASE
TAF
KASE 182338Z 1900/1924 VRB03KT P6SM VCTS BKN060CB
      TEMPO 1901/1904 VRB15G25KT -TSRA BKN040CB
     FM190500 22005KT P6SM VCSH SCT040 BKN050
     FM190600 18005KT P6SM SCT045 BKN050
     FM191100 VRB04KT P6SM FEW060 SCT120
     FM192000 29010G20KT P6SM FEW080 SCT100=

USA.gov is the U.S. government's official web portal to all federal, state and local government web resources and services.